Time;durP1;ratioP1;P1;durP2;ratioP2;P2;SDS_P1;SDS_P2;PMS_P1;PMS_P2;Temp;Humidity;BMP_temperature;BMP_pressure;BME280_temperature;BME280_humidity;BME280_pressure;Samples;Min_cycle;Max_cycle;Signal;HPM_P1;HPM_P2
2024/01/10 00:00:48;;;;;;;26.48;13.45;;;;;;;-0.19;100.00;101407.53;5079871;28;20020;-79
2024/01/10 00:03:13;;;;;;;25.88;14.18;;;;;;;-0.04;100.00;101401.97;5079699;28;20463;-79
2024/01/10 00:05:38;;;;;;;27.15;14.75;;;;;;;-0.26;100.00;101373.91;5078534;28;20096;-79
2024/01/10 00:08:04;;;;;;;28.23;14.25;;;;;;;-0.21;100.00;101376.19;5078572;28;20044;-80
2024/01/10 00:10:29;;;;;;;28.23;14.18;;;;;;;-0.17;100.00;101393.34;5063349;28;20020;-80
2024/01/10 00:12:55;;;;;;;30.38;13.25;;;;;;;-0.25;100.00;101387.84;5080967;28;20517;-79
2024/01/10 00:15:20;;;;;;;28.25;14.65;;;;;;;-0.25;100.00;101385.22;5077956;28;20067;-80
2024/01/10 00:17:46;;;;;;;28.83;14.73;;;;;;;0.01;100.00;101411.25;5078019;28;20052;-79
2024/01/10 00:20:11;;;;;;;28.05;13.60;;;;;;;-0.22;100.00;101379.75;5080034;28;20409;-79
2024/01/10 00:22:36;;;;;;;27.13;14.20;;;;;;;-0.15;100.00;101373.09;5078744;28;20040;-79
2024/01/10 00:25:02;;;;;;;27.23;13.90;;;;;;;-0.21;100.00;101378.78;5077937;28;20028;-78
2024/01/10 00:27:27;;;;;;;32.08;14.73;;;;;;;0.05;100.00;101408.28;5080057;28;20058;-78
2024/01/10 00:29:53;;;;;;;24.70;13.18;;;;;;;-0.03;100.00;101402.78;5082680;28;20111;-79
2024/01/10 00:32:18;;;;;;;28.48;14.98;;;;;;;-0.10;100.00;101389.31;5086507;28;20043;-78
2024/01/10 00:34:44;;;;;;;25.67;14.13;;;;;;;0.11;100.00;101412.22;5088967;28;20046;-79
2024/01/10 00:37:09;;;;;;;30.13;16.35;;;;;;;0.10;100.00;101423.66;5089161;28;20024;-78
2024/01/10 00:39:35;;;;;;;30.00;16.50;;;;;;;-0.13;100.00;101401.81;5084882;28;20059;-79
2024/01/10 00:42:00;;;;;;;35.40;20.20;;;;;;;0.12;100.00;101419.13;5089124;28;20107;-79
2024/01/10 00:44:26;;;;;;;35.90;18.55;;;;;;;0.00;100.00;101399.94;5089098;28;20085;-79
2024/01/10 00:46:51;;;;;;;47.10;29.85;;;;;;;0.04;100.00;101422.38;5089424;28;20055;-79
2024/01/10 00:49:16;;;;;;;56.85;33.47;;;;;;;0.01;100.00;101396.34;5081745;28;20039;-79
2024/01/10 00:51:42;;;;;;;32.90;18.10;;;;;;;0.02;100.00;101402.44;5050992;28;20028;-78
2024/01/10 00:54:07;;;;;;;34.47;20.98;;;;;;;-0.11;100.00;101424.34;5068544;28;20064;-78
2024/01/10 00:56:32;;;;;;;48.20;27.30;;;;;;;-0.05;100.00;101399.44;5068701;28;20723;-79
2024/01/10 00:58:58;;;;;;;57.65;35.22;;;;;;;-0.02;100.00;101415.78;5076438;28;20020;-80
2024/01/10 01:01:24;;;;;;;31.92;18.75;;;;;;;0.27;100.00;101427.63;5089241;28;20070;-79
2024/01/10 01:03:50;;;;;;;28.23;17.63;;;;;;;0.21;100.00;101423.69;5070736;28;20101;-79
2024/01/10 01:06:15;;;;;;;49.08;34.67;;;;;;;0.16;100.00;101425.81;5088810;28;20353;-79
2024/01/10 01:08:41;;;;;;;28.02;16.85;;;;;;;0.24;100.00;101426.06;5088658;28;20547;-80
2024/01/10 01:11:06;;;;;;;27.33;14.52;;;;;;;0.34;100.00;101407.81;5088620;28;20111;-79
2024/01/10 01:13:32;;;;;;;28.75;13.57;;;;;;;0.44;100.00;101434.19;5088656;28;20083;-80
2024/01/10 01:15:57;;;;;;;23.77;12.90;;;;;;;0.52;100.00;101444.94;5071135;28;20150;-78
2024/01/10 01:18:22;;;;;;;28.95;16.17;;;;;;;0.35;100.00;101420.00;5088901;28;20039;-79
2024/01/10 01:20:49;;;;;;;24.98;13.48;;;;;;;0.26;100.00;101411.03;5071594;28;20408;-78
2024/01/10 01:23:15;;;;;;;24.20;12.82;;;;;;;0.26;100.00;101418.06;5068831;28;20032;-79
2024/01/10 01:25:41;;;;;;;24.25;13.18;;;;;;;0.26;100.00;101416.28;5050939;28;20104;-79
2024/01/10 01:28:07;;;;;;;23.23;13.07;;;;;;;0.04;100.00;101411.00;5050988;28;20187;-78
2024/01/10 01:30:33;;;;;;;24.25;12.73;;;;;;;0.24;100.00;101423.44;5071985;28;20047;-79
2024/01/10 01:32:58;;;;;;;27.20;13.07;;;;;;;0.21;100.00;101407.94;5068755;28;20021;-79
2024/01/10 01:35:23;;;;;;;23.17;12.70;;;;;;;-0.07;100.00;101381.19;5068157;28;20447;-78
2024/01/10 01:37:49;;;;;;;24.17;13.07;;;;;;;0.10;100.00;101400.06;5068723;28;20036;-79
2024/01/10 01:40:15;;;;;;;25.80;14.02;;;;;;;0.13;100.00;101405.91;5064970;28;20028;-79
2024/01/10 01:42:40;;;;;;;29.65;14.73;;;;;;;0.12;100.00;101400.78;5088945;28;20545;-79
2024/01/10 01:45:06;;;;;;;25.13;13.13;;;;;;;0.29;100.00;101410.00;5071175;28;20028;-78
2024/01/10 01:47:32;;;;;;;28.17;12.98;;;;;;;0.29;100.00;101395.06;5092916;28;20404;-78
2024/01/10 01:49:57;;;;;;;24.13;13.13;;;;;;;0.05;100.00;101382.06;5091139;28;20023;-79
2024/01/10 01:52:24;;;;;;;39.60;17.67;;;;;;;0.19;100.00;101391.50;5074410;28;20491;-79
2024/01/10 01:54:50;;;;;;;42.92;20.23;;;;;;;0.11;100.00;101386.00;5093104;28;20802;-78
2024/01/10 01:57:15;;;;;;;34.05;18.05;;;;;;;0.12;100.00;101398.16;5074387;28;20142;-78
2024/01/10 01:59:40;;;;;;;36.33;18.65;;;;;;;0.06;100.00;101390.75;5090856;28;20040;-79
2024/01/10 02:02:07;;;;;;;31.48;16.65;;;;;;;0.17;100.00;101386.34;5092761;28;20075;-78
2024/01/10 02:04:33;;;;;;;29.77;15.65;;;;;;;0.26;100.00;101394.47;5092776;28;20070;-79
2024/01/10 02:06:59;;;;;;;29.63;15.60;;;;;;;0.29;100.00;101399.50;5074350;28;20032;-78
2024/01/10 02:09:25;;;;;;;26.45;13.43;;;;;;;0.18;100.00;101382.78;5071204;28;20081;-78
2024/01/10 02:11:50;;;;;;;24.30;13.57;;;;;;;0.16;100.00;101373.34;5054117;28;20028;-79
2024/01/10 02:14:16;;;;;;;25.02;14.00;;;;;;;0.10;100.00;101360.72;5053480;28;20696;-79
2024/01/10 02:16:42;;;;;;;31.02;16.05;;;;;;;0.20;100.00;101382.66;5072385;28;20497;-79
2024/01/10 02:19:26;;;;;;;29.08;15.50;;;;;;;0.25;100.00;101385.75;5071965;28;20032;-79
2024/01/10 02:21:52;;;;;;;28.55;14.85;;;;;;;0.29;100.00;101389.00;5071965;28;20082;-79
2024/01/10 02:24:17;;;;;;;28.58;15.85;;;;;;;0.13;100.00;101357.88;5071684;28;20033;-78
2024/01/10 02:26:43;;;;;;;29.45;16.88;;;;;;;0.07;100.00;101376.69;5071966;28;20101;-79
2024/01/10 02:29:09;;;;;;;32.22;16.83;;;;;;;0.13;100.00;101374.44;5072956;28;20042;-79
2024/01/10 02:31:34;;;;;;;31.45;18.25;;;;;;;-0.01;100.00;101340.56;5056197;28;20111;-79
2024/01/10 02:34:00;;;;;;;30.83;15.50;;;;;;;0.18;100.00;101376.69;5053404;28;20127;-79
2024/01/10 02:36:25;;;;;;;27.42;14.60;;;;;;;0.12;100.00;101353.56;5053548;28;20031;-80
2024/01/10 02:38:51;;;;;;;30.70;15.85;;;;;;;0.10;100.00;101348.44;5053271;28;20466;-79
2024/01/10 02:41:16;;;;;;;25.02;15.18;;;;;;;0.13;100.00;101339.50;5089986;28;20032;-80
2024/01/10 02:43:41;;;;;;;28.67;14.85;;;;;;;0.19;100.00;101363.47;5092065;28;20031;-79
2024/01/10 02:46:07;;;;;;;27.15;15.65;;;;;;;0.12;100.00;101364.03;5073680;28;20025;-79
2024/01/10 02:48:32;;;;;;;27.88;15.32;;;;;;;0.25;100.00;101366.56;5091752;28;20385;-79
2024/01/10 02:50:57;;;;;;;29.40;15.27;;;;;;;0.20;100.00;101374.78;5061370;28;20147;-79
2024/01/10 02:53:23;;;;;;;31.55;16.80;;;;;;;0.07;100.00;101359.16;5071342;28;20028;-79
2024/01/10 02:55:49;;;;;;;31.80;17.10;;;;;;;0.21;100.00;101365.16;5071623;28;20115;-80
2024/01/10 02:58:15;;;;;;;32.15;16.80;;;;;;;0.15;100.00;101364.66;5070468;28;20034;-79
2024/01/10 03:00:40;;;;;;;33.50;15.48;;;;;;;0.09;100.00;101373.00;5082110;28;20020;-79
2024/01/10 03:03:05;;;;;;;30.17;15.95;;;;;;;0.14;100.00;101377.88;5091268;28;20415;-78
2024/01/10 03:05:31;;;;;;;26.38;14.45;;;;;;;0.01;100.00;101371.94;5091438;28;20150;-80
2024/01/10 03:07:56;;;;;;;22.63;12.02;;;;;;;-0.08;100.00;101387.41;5091374;28;20397;-79
2024/01/10 03:10:21;;;;;;;20.67;10.85;;;;;;;-0.10;100.00;101378.81;5085820;28;20067;-79
2024/01/10 03:12:47;;;;;;;17.27;11.30;;;;;;;-0.20;100.00;101370.00;5052929;28;20428;-78
2024/01/10 03:15:12;;;;;;;19.65;9.82;;;;;;;-0.24;100.00;101334.47;5070753;28;20112;-79
2024/01/10 03:17:38;;;;;;;18.88;10.43;;;;;;;0.08;100.00;101394.09;5070660;28;20033;-79
2024/01/10 03:20:04;;;;;;;17.65;8.88;;;;;;;0.15;100.00;101398.75;5074284;28;20031;-79
2024/01/10 03:22:32;;;;;;;18.20;10.02;;;;;;;-0.03;100.00;101397.53;5070902;28;20059;-78
2024/01/10 03:24:57;;;;;;;17.63;9.48;;;;;;;-0.05;100.00;101363.56;5052829;28;20499;-79
2024/01/10 03:27:22;;;;;;;34.72;22.63;;;;;;;-0.23;100.00;101373.66;5070720;28;20109;-79
2024/01/10 03:29:48;;;;;;;22.25;11.43;;;;;;;-0.05;100.00;101402.06;5071829;28;20025;-79
2024/01/10 03:32:13;;;;;;;13.75;7.00;;;;;;;-0.23;100.00;101350.06;5054438;28;20123;-80
2024/01/10 03:34:42;;;;;;;12.93;6.68;;;;;;;-0.14;100.00;101377.38;5052709;28;20025;-80
2024/01/10 03:37:07;;;;;;;14.85;7.07;;;;;;;-0.24;100.00;101381.66;5070957;28;20127;-79
2024/01/10 03:39:32;;;;;;;12.35;5.88;;;;;;;-0.17;100.00;101393.34;5052833;28;20561;-79
2024/01/10 03:41:58;;;;;;;12.98;6.30;;;;;;;-0.22;100.00;101385.00;5089803;28;20606;-79
2024/01/10 03:44:23;;;;;;;8.98;5.03;;;;;;;-0.18;100.00;101380.34;5072469;28;20031;-79
2024/01/10 03:46:49;;;;;;;10.65;5.72;;;;;;;-0.07;100.00;101386.44;5072349;28;20032;-79
2024/01/10 03:49:14;;;;;;;13.40;6.28;;;;;;;-0.27;100.00;101403.69;5090834;28;20031;-80
2024/01/10 03:51:40;;;;;;;12.32;8.55;;;;;;;-0.43;100.00;101392.69;5074805;28;20033;-80
2024/01/10 03:54:06;;;;;;;10.75;5.68;;;;;;;-0.31;100.00;101390.94;5070106;28;20048;-80
2024/01/10 03:56:31;;;;;;;13.00;5.15;;;;;;;-0.56;100.00;101384.91;5052405;28;20481;-80
2024/01/10 03:58:56;;;;;;;9.82;5.07;;;;;;;-0.44;100.00;101407.56;5069868;28;20584;-79
2024/01/10 04:01:25;;;;;;;10.52;5.40;;;;;;;-0.46;100.00;101419.97;5073946;28;20052;-79
2024/01/10 04:03:51;;;;;;;10.82;5.88;;;;;;;-0.84;100.00;101373.84;5052015;28;20028;-80
2024/01/10 04:06:16;;;;;;;12.25;6.10;;;;;;;-0.61;100.00;101390.50;5052344;28;20432;-80
2024/01/10 04:08:41;;;;;;;10.00;5.32;;;;;;;-0.30;100.00;101398.69;5052042;28;20068;-80
2024/01/10 04:11:08;;;;;;;10.23;5.07;;;;;;;-0.68;100.00;101373.53;5061103;28;20169;-80
2024/01/10 04:13:34;;;;;;;9.82;5.57;;;;;;;-0.75;100.00;101368.88;5089848;28;20048;-80
2024/01/10 04:16:00;;;;;;;10.18;5.60;;;;;;;-1.23;100.00;101375.81;5072073;28;20031;-80
2024/01/10 04:18:25;;;;;;;10.40;5.32;;;;;;;-1.36;100.00;101388.06;5072230;28;20035;-79
2024/01/10 04:20:51;;;;;;;12.35;5.72;;;;;;;-0.74;100.00;101415.91;5069874;28;20031;-79
2024/01/10 04:23:17;;;;;;;11.35;6.45;;;;;;;-0.70;100.00;101416.53;5070344;28;20039;-80
2024/01/10 04:25:42;;;;;;;15.13;8.38;;;;;;;-0.91;100.00;101404.03;5070745;28;20366;-80
2024/01/10 04:28:08;;;;;;;47.80;28.08;;;;;;;-0.89;100.00;101412.63;5055547;28;20028;-79
2024/01/10 04:30:33;;;;;;;49.05;24.90;;;;;;;-0.79;100.00;101419.84;5074890;28;20993;-80
2024/01/10 04:32:58;;;;;;;19.95;11.18;;;;;;;-0.93;100.00;101394.63;5091027;28;20102;-80
2024/01/10 04:35:24;;;;;;;16.08;8.40;;;;;;;-0.92;100.00;101423.34;5073272;28;20020;-79
2024/01/10 04:37:49;;;;;;;13.90;6.95;;;;;;;-1.07;100.00;101409.53;5082496;28;20054;-80
2024/01/10 04:40:15;;;;;;;13.80;7.28;;;;;;;-1.26;100.00;101386.47;5084423;28;20059;-79
2024/01/10 04:42:40;;;;;;;12.80;5.95;;;;;;;-1.19;100.00;101404.38;5067825;28;20586;-80
2024/01/10 04:45:07;;;;;;;13.48;6.75;;;;;;;-1.03;100.00;101431.94;5081865;28;20396;-79
2024/01/10 04:47:32;;;;;;;12.60;5.65;;;;;;;-1.17;100.00;101412.94;5081771;28;20025;-80
2024/01/10 04:49:58;;;;;;;12.95;5.50;;;;;;;-1.30;100.00;101408.56;5062888;28;20037;-80
2024/01/10 04:52:23;;;;;;;12.75;5.18;;;;;;;-1.13;100.00;101445.81;5077138;28;20039;-80
2024/01/10 04:54:49;;;;;;;11.88;5.38;;;;;;;-1.30;100.00;101424.28;5097963;28;20028;-79
2024/01/10 04:57:15;;;;;;;13.00;6.22;;;;;;;-1.38;100.00;101420.53;5098003;28;20032;-80
2024/01/10 04:59:41;;;;;;;11.00;5.38;;;;;;;-1.31;100.00;101440.94;5073870;28;20442;-80
2024/01/10 05:02:07;;;;;;;11.27;5.40;;;;;;;-1.33;100.00;101445.41;5066526;28;20036;-80
2024/01/10 05:04:32;;;;;;;12.75;5.60;;;;;;;-1.73;100.00;101427.28;5059760;28;20017;-80
2024/01/10 05:06:58;;;;;;;14.55;7.00;;;;;;;-2.20;100.00;101417.44;5075187;28;20063;-80
2024/01/10 05:09:23;;;;;;;13.60;6.82;;;;;;;-2.14;100.00;101438.78;5073510;28;20025;-80
2024/01/10 05:11:51;;;;;;;16.35;8.35;;;;;;;-1.91;100.00;101428.53;5057408;28;20039;-79
2024/01/10 05:14:19;;;;;;;18.88;10.13;;;;;;;-1.85;100.00;101426.34;5051818;28;20133;-80
2024/01/10 05:16:45;;;;;;;16.95;8.35;;;;;;;-1.74;100.00;101424.75;5069481;28;20024;-80
2024/01/10 05:19:10;;;;;;;14.55;7.38;;;;;;;-1.56;100.00;101464.50;5069349;28;20032;-80
2024/01/10 05:21:36;;;;;;;16.45;6.90;;;;;;;-1.86;100.00;101442.13;5072817;28;20029;-80
2024/01/10 05:24:01;;;;;;;14.05;6.10;;;;;;;-1.97;100.00;101421.94;5068659;28;20463;-80
2024/01/10 05:26:26;;;;;;;11.50;6.15;;;;;;;-1.92;100.00;101421.63;5050808;28;20025;-80
2024/01/10 05:28:52;;;;;;;12.82;6.97;;;;;;;-1.83;100.00;101440.13;5050757;28;20127;-80
2024/01/10 05:31:17;;;;;;;16.55;10.10;;;;;;;-1.70;100.00;101447.97;5071944;28;20105;-80
2024/01/10 05:33:43;;;;;;;11.55;6.10;;;;;;;-1.66;100.00;101456.47;5069064;28;20099;-80
2024/01/10 05:36:11;;;;;;;13.93;6.13;;;;;;;-1.93;100.00;101431.25;5068577;28;20024;-80
2024/01/10 05:38:37;;;;;;;14.48;7.85;;;;;;;-1.83;100.00;101442.75;5068735;28;20025;-80
2024/01/10 05:41:02;;;;;;;18.95;10.48;;;;;;;-1.89;100.00;101442.34;5069943;28;20157;-80
2024/01/10 05:43:28;;;;;;;24.77;13.55;;;;;;;-1.88;100.00;101433.53;5053730;28;20167;-80
2024/01/10 05:45:53;;;;;;;186.48;63.08;;;;;;;-1.79;100.00;101451.25;5050355;28;20017;-80
2024/01/10 05:48:18;;;;;;;194.38;68.50;;;;;;;-1.60;100.00;101463.88;5068600;28;20028;-80
2024/01/10 05:50:44;;;;;;;100.30;35.72;;;;;;;-1.41;100.00;101476.53;5068451;28;20105;-80
2024/01/10 05:53:10;;;;;;;174.65;61.97;;;;;;;-1.68;100.00;101455.72;5073175;28;20036;-80
2024/01/10 05:55:36;;;;;;;76.40;31.48;;;;;;;-1.69;100.00;101481.06;5068570;28;20116;-81
2024/01/10 05:58:02;;;;;;;42.30;18.17;;;;;;;-1.64;100.00;101488.56;5068425;28;20064;-80
2024/01/10 06:00:28;;;;;;;39.85;17.88;;;;;;;-2.26;100.00;101452.66;5050189;28;20514;-79
2024/01/10 06:02:53;;;;;;;61.40;26.83;;;;;;;-1.83;100.00;101479.38;5082326;28;20119;-80
2024/01/10 06:05:19;;;;;;;73.13;29.85;;;;;;;-2.11;100.00;101462.06;5070351;28;20059;-80
2024/01/10 06:07:44;;;;;;;54.60;23.35;;;;;;;-2.28;100.00;101476.25;5088573;28;20066;-80
2024/01/10 06:10:10;;;;;;;33.95;15.13;;;;;;;-2.44;100.00;101488.66;5070278;28;20024;-79
2024/01/10 06:12:35;;;;;;;23.73;13.20;;;;;;;-2.11;100.00;101475.13;5062873;28;20075;-80
2024/01/10 06:15:01;;;;;;;31.02;12.85;;;;;;;-1.89;100.00;101499.88;5049644;28;20133;-80
2024/01/10 06:17:26;;;;;;;44.70;16.20;;;;;;;-1.95;100.00;101479.34;5050173;28;20177;-80
2024/01/10 06:19:52;;;;;;;67.30;31.42;;;;;;;-2.12;100.00;101478.72;5050148;28;20035;-80
2024/01/10 06:22:17;;;;;;;66.75;33.65;;;;;;;-2.02;100.00;101499.84;5053672;28;20171;-79
2024/01/10 06:24:43;;;;;;;250.93;74.20;;;;;;;-2.50;100.00;101465.53;5050061;28;20025;-80
2024/01/10 06:27:09;;;;;;;147.82;54.50;;;;;;;-2.24;100.00;101514.31;5068799;28;20115;-80
2024/01/10 06:29:36;;;;;;;79.32;41.83;;;;;;;-2.20;100.00;101509.75;5050067;28;20548;-80
2024/01/10 06:32:02;;;;;;;45.20;26.00;;;;;;;-2.17;100.00;101506.91;5072457;28;20077;-80
2024/01/10 06:34:28;;;;;;;36.05;24.13;;;;;;;-2.07;100.00;101523.66;5078358;28;20127;-80
2024/01/10 06:36:53;;;;;;;34.72;22.80;;;;;;;-2.01;100.00;101527.66;5073484;28;20476;-80
2024/01/10 06:39:19;;;;;;;38.15;20.80;;;;;;;-1.88;100.00;101523.31;5081454;28;20050;-80
2024/01/10 06:41:47;;;;;;;39.67;19.90;;;;;;;-1.76;100.00;101537.31;5072999;28;20024;-81
2024/01/10 06:44:12;;;;;;;36.60;17.93;;;;;;;-2.09;100.00;101525.53;5073789;28;20039;-80
2024/01/10 06:46:37;;;;;;;32.95;19.88;;;;;;;-1.88;100.00;101538.13;5053545;28;20021;-80
2024/01/10 06:49:03;;;;;;;28.85;13.38;;;;;;;-1.98;100.00;101537.06;5053419;28;20459;-80
2024/01/10 06:51:28;;;;;;;34.03;18.42;;;;;;;-1.98;100.00;101537.06;5071410;28;20030;-80
2024/01/10 06:54:00;;;;;;;24.92;13.68;;;;;;;-2.23;100.00;101521.25;5056664;28;20035;-80
2024/01/10 06:56:25;;;;;;;21.38;12.60;;;;;;;-2.23;100.00;101565.66;5071451;28;20107;-80
2024/01/10 06:58:51;;;;;;;21.73;11.57;;;;;;;-2.57;100.00;101543.47;5071077;28;20132;-79
2024/01/10 07:01:16;;;;;;;28.45;15.02;;;;;;;-2.45;100.00;101570.59;5071142;28;20044;-80
2024/01/10 07:03:42;;;;;;;34.97;16.60;;;;;;;-2.48;100.00;101540.25;5057112;28;20066;-80
2024/01/10 07:06:07;;;;;;;40.42;18.08;;;;;;;-2.14;100.00;101548.53;5052932;28;20044;-80
2024/01/10 07:08:33;;;;;;;36.88;17.77;;;;;;;-2.28;100.00;101548.59;5070576;28;20031;-80
2024/01/10 07:10:58;;;;;;;50.50;24.85;;;;;;;-2.30;100.00;101563.53;5071247;28;20036;-81
2024/01/10 07:13:24;;;;;;;37.63;16.73;;;;;;;-2.27;100.00;101574.63;5074417;28;20483;-79
2024/01/10 07:15:52;;;;;;;31.48;15.13;;;;;;;-2.23;100.00;101575.25;5070922;28;20036;-80
2024/01/10 07:18:18;;;;;;;29.42;13.90;;;;;;;-2.31;100.00;101559.25;5070855;28;20036;-80
2024/01/10 07:20:43;;;;;;;27.17;13.65;;;;;;;-2.35;100.00;101549.91;5070712;28;20032;-79
2024/01/10 07:23:08;;;;;;;42.60;19.02;;;;;;;-2.14;100.00;101564.22;5079874;28;20107;-80
2024/01/10 07:25:34;;;;;;;49.70;24.38;;;;;;;-1.89;100.00;101560.00;5072721;28;20090;-81
2024/01/10 07:27:59;;;;;;;70.30;31.15;;;;;;;-1.72;100.00;101564.94;5090880;28;20039;-80
2024/01/10 07:30:26;;;;;;;69.93;29.88;;;;;;;-1.60;100.00;101580.78;5058076;28;20028;-79
2024/01/10 07:32:51;;;;;;;32.30;16.95;;;;;;;-1.92;100.00;101537.53;5076173;28;20578;-80
2024/01/10 07:35:17;;;;;;;30.00;17.65;;;;;;;-1.73;100.00;101533.69;5072386;28;20024;-80
2024/01/10 07:37:43;;;;;;;47.92;25.83;;;;;;;-1.59;100.00;101580.69;5088636;28;20032;-80
2024/01/10 07:40:10;;;;;;;54.90;25.83;;;;;;;-1.52;100.00;101584.53;5062327;28;20496;-80
2024/01/10 07:42:36;;;;;;;26.50;14.03;;;;;;;-1.87;100.00;101550.28;5078361;28;20527;-79
2024/01/10 07:45:05;;;;;;;28.65;15.48;;;;;;;-2.08;100.00;101529.00;5081809;28;20058;-79
2024/01/10 07:47:32;;;;;;;28.55;14.73;;;;;;;-1.82;100.00;101535.09;5078622;28;20055;-80
2024/01/10 07:49:57;;;;;;;25.20;13.93;;;;;;;-1.86;100.00;101572.88;5079278;28;20460;-80
2024/01/10 07:52:23;;;;;;;27.02;13.82;;;;;;;-1.50;100.00;101597.53;5082563;28;20030;-79
2024/01/10 07:54:48;;;;;;;21.30;11.43;;;;;;;-1.82;100.00;101542.94;5088224;28;20028;-80
2024/01/10 07:57:14;;;;;;;25.77;11.73;;;;;;;-1.20;100.00;101585.94;5090353;28;20044;-80
2024/01/10 07:59:39;;;;;;;24.63;12.02;;;;;;;-1.22;100.00;101576.41;5071951;28;20024;-80
2024/01/10 08:02:05;;;;;;;20.73;10.38;;;;;;;-1.24;100.00;101549.50;5076007;28;20036;-79
2024/01/10 08:04:31;;;;;;;19.73;9.55;;;;;;;-0.93;100.00;101576.16;5082691;28;20028;-80
2024/01/10 08:06:56;;;;;;;18.63;8.10;;;;;;;-1.06;100.00;101602.38;5079392;28;20033;-79
2024/01/10 08:09:24;;;;;;;13.48;7.00;;;;;;;-0.91;100.00;101600.47;5079391;28;20793;-80
2024/01/10 08:11:49;;;;;;;13.13;5.95;;;;;;;-1.16;100.00;101569.09;5079543;28;20425;-80
2024/01/10 08:14:15;;;;;;;12.88;5.47;;;;;;;-0.89;100.00;101590.72;5082656;28;20048;-80
2024/01/10 08:16:41;;;;;;;11.95;7.30;;;;;;;-0.62;100.00;101608.06;5071617;28;20024;-80
2024/01/10 08:19:07;;;;;;;12.70;5.65;;;;;;;-1.24;100.00;101588.75;5071676;28;20046;-80
2024/01/10 08:21:32;;;;;;;14.00;6.68;;;;;;;-1.02;95.91;101592.53;5089905;28;20028;-80
2024/01/10 08:23:58;;;;;;;13.48;7.40;;;;;;;-0.51;90.83;101605.53;5082020;28;20040;-80
2024/01/10 08:26:23;;;;;;;24.45;11.30;;;;;;;-0.59;94.96;101597.38;5069279;28;20025;-80
2024/01/10 08:28:48;;;;;;;17.75;9.52;;;;;;;-0.49;89.69;101608.88;5068916;28;20032;-79
2024/01/10 08:31:17;;;;;;;23.08;11.23;;;;;;;-0.16;88.35;101607.41;5069758;28;20035;-79
2024/01/10 08:33:42;;;;;;;21.58;10.98;;;;;;;-0.04;88.46;101598.66;5059431;28;20047;-79
2024/01/10 08:36:09;;;;;;;22.70;10.63;;;;;;;-0.12;85.30;101593.13;5089489;28;20046;-80
2024/01/10 08:38:35;;;;;;;22.30;10.30;;;;;;;-0.08;90.58;101609.47;5071493;28;20027;-80
2024/01/10 08:41:01;;;;;;;18.48;8.90;;;;;;;-0.15;86.01;101601.22;5089640;28;20506;-79
2024/01/10 08:43:27;;;;;;;19.60;9.65;;;;;;;-0.14;88.55;101602.03;5070018;28;20042;-79
2024/01/10 08:45:52;;;;;;;16.80;9.50;;;;;;;0.12;86.45;101602.75;5069158;28;20032;-80
2024/01/10 08:48:17;;;;;;;14.68;7.88;;;;;;;-0.17;92.21;101603.09;5068649;28;20520;-81
2024/01/10 08:50:43;;;;;;;13.57;6.88;;;;;;;-0.22;84.84;101606.06;5068940;28;20115;-79
2024/01/10 08:53:10;;;;;;;16.17;8.45;;;;;;;0.06;86.67;101611.06;5053429;28;20101;-79
2024/01/10 08:55:37;;;;;;;13.77;5.97;;;;;;;0.02;81.56;101618.34;5070601;28;20035;-79
2024/01/10 08:58:03;;;;;;;13.23;5.72;;;;;;;0.14;83.00;101609.59;5068825;28;20103;-79
2024/01/10 09:00:28;;;;;;;14.02;6.75;;;;;;;0.14;87.99;101587.75;5050626;28;20029;-80
2024/01/10 09:02:55;;;;;;;20.08;8.77;;;;;;;0.47;86.23;101601.91;5068702;28;20033;-79
2024/01/10 09:05:21;;;;;;;15.40;7.00;;;;;;;0.47;83.76;101609.78;5086504;28;20032;-79
2024/01/10 09:07:47;;;;;;;18.40;10.40;;;;;;;0.84;84.00;101617.50;5070225;28;20067;-78
2024/01/10 09:10:12;;;;;;;17.85;9.25;;;;;;;0.78;88.07;101600.47;5088862;28;20083;-78
2024/01/10 09:12:38;;;;;;;21.23;10.07;;;;;;;0.82;89.30;101580.03;5088702;28;20077;-79
2024/01/10 09:15:04;;;;;;;16.13;9.57;;;;;;;0.98;87.63;101585.75;5087835;28;20036;-78
2024/01/10 09:17:30;;;;;;;27.98;13.38;;;;;;;0.61;86.33;101554.47;5088563;28;20044;-78
2024/01/10 09:19:55;;;;;;;22.92;13.10;;;;;;;0.53;88.99;101567.34;5088894;28;20028;-80
2024/01/10 09:22:21;;;;;;;29.80;14.25;;;;;;;0.51;88.33;101582.38;5070538;28;20120;-79
2024/01/10 09:24:47;;;;;;;23.38;12.07;;;;;;;0.74;86.14;101594.59;5076648;28;20684;-79
2024/01/10 09:27:12;;;;;;;20.75;10.43;;;;;;;0.72;85.76;101570.25;5050284;28;20121;-79
2024/01/10 09:29:38;;;;;;;23.17;13.52;;;;;;;5.26;100.00;101572.59;5068728;28;20028;-79
2024/01/10 09:32:03;;;;;;;24.33;12.77;;;;;;;9.68;58.48;101590.97;5068074;28;20036;-80
2024/01/10 09:34:29;;;;;;;24.10;13.40;;;;;;;13.50;44.47;101594.22;5076654;28;20502;-79
2024/01/10 09:36:54;;;;;;;20.83;11.88;;;;;;;11.86;39.54;101602.47;5088218;28;20465;-79
2024/01/10 09:39:20;;;;;;;22.27;12.73;;;;;;;12.52;38.54;101602.28;5088672;28;20137;-79
2024/01/10 09:41:50;;;;;;;18.48;11.50;;;;;;;12.43;36.88;101623.00;5088510;28;20024;-79
2024/01/10 09:44:21;;;;;;;16.52;10.80;;;;;;;12.61;34.32;101605.66;5084860;28;20035;-77
2024/01/10 09:46:51;;;;;;;17.33;11.18;;;;;;;14.30;33.27;101618.50;5068485;28;21273;-77
2024/01/10 09:49:16;;;;;;;14.35;9.50;;;;;;;14.34;32.26;101621.63;5068359;28;20389;-79
2024/01/10 09:51:42;;;;;;;18.13;10.52;;;;;;;13.54;30.14;101603.50;5068412;28;20040;-79
2024/01/10 09:54:08;;;;;;;16.38;10.40;;;;;;;8.82;37.51;101602.28;5072093;28;20047;-79
2024/01/10 09:56:33;;;;;;;17.35;11.10;;;;;;;5.60;48.37;101578.94;5050120;28;20117;-78
2024/01/10 09:59:02;;;;;;;18.00;10.65;;;;;;;5.04;48.59;101572.81;5050211;28;20532;-76
2024/01/10 10:01:27;;;;;;;;;;;;;;;4.04;53.02;101568.03;5068380;28;20051;-77
2024/01/10 10:03:56;;;;;;;27.15;17.15;;;;;;;3.72;56.72;101563.00;5068400;28;19912;-76
2024/01/10 10:06:21;;;;;;;16.83;10.40;;;;;;;3.12;61.08;101555.91;5071178;28;20032;-78
2024/01/10 10:08:47;;;;;;;20.00;11.85;;;;;;;3.05;62.38;101543.44;5091778;28;20413;-77
2024/01/10 10:11:16;;;;;;;20.38;12.15;;;;;;;3.24;59.57;101553.19;5092150;28;20056;-77
2024/01/10 10:13:41;;;;;;;24.85;14.95;;;;;;;3.13;62.98;101518.06;5091798;28;20056;-76
2024/01/10 10:16:09;;;;;;;18.05;10.30;;;;;;;3.19;61.84;101503.53;5086624;28;20046;-77
2024/01/10 10:18:35;;;;;;;17.40;9.93;;;;;;;3.20;63.48;101521.81;5092021;28;20024;-78
2024/01/10 10:21:19;;;;;;;18.52;10.23;;;;;;;2.84;65.22;101509.22;5092064;28;20277;-77
2024/01/10 10:23:58;;;;;;;23.40;11.13;;;;;;;3.17;65.18;101523.91;5092133;28;20620;-77
2024/01/10 10:26:26;;;;;;;15.80;9.40;;;;;;;3.45;59.09;101522.28;5091700;28;20503;-77
2024/01/10 10:28:52;;;;;;;19.10;9.88;;;;;;;3.57;61.60;101500.09;5091751;28;20043;-76
2024/01/10 10:31:19;;;;;;;17.83;10.25;;;;;;;4.16;62.97;101518.56;5073619;28;20360;-77
2024/01/10 10:33:45;;;;;;;16.48;9.63;;;;;;;4.01;63.06;101515.53;5091794;28;20024;-76
2024/01/10 10:36:11;;;;;;;19.60;11.15;;;;;;;4.02;64.34;101515.38;5076614;28;20024;-76
2024/01/10 10:38:39;;;;;;;15.32;9.20;;;;;;;5.14;65.72;101511.94;5053640;28;20036;-76
2024/01/10 10:41:10;;;;;;;15.93;9.40;;;;;;;5.51;55.28;101521.59;5071749;28;20028;-77
2024/01/10 10:43:37;;;;;;;16.92;9.80;;;;;;;6.74;64.21;101504.06;5071525;28;20090;-77
2024/01/10 10:46:06;;;;;;;15.75;9.40;;;;;;;9.48;62.21;101516.88;5086700;28;20035;-75
2024/01/10 10:48:35;;;;;;;12.70;7.82;;;;;;;8.21;52.66;101507.97;5073427;28;20027;-76
2024/01/10 10:51:17;;;;;;;13.90;8.07;;;;;;;6.22;55.72;101502.22;5091035;28;20743;-76
2024/01/10 10:53:45;;;;;;;12.82;7.22;;;;;;;6.50;54.63;101503.88;5091450;28;20024;-76
2024/01/10 10:56:12;;;;;;;15.68;7.78;;;;;;;5.82;55.50;101513.28;5077835;28;20025;-76
2024/01/10 10:58:44;;;;;;;12.00;6.93;;;;;;;5.66;55.06;101507.84;5071357;28;20024;-76
2024/01/10 11:01:12;;;;;;;16.73;8.60;;;;;;;6.51;57.54;101465.81;5053050;28;20025;-77
2024/01/10 11:03:40;;;;;;;14.02;8.27;;;;;;;6.59;65.13;101487.88;5053179;28;20064;-76